sensor_id;sensor_type;location;lat;lon;timestamp;temperature;humidity
314;DHT22;143;51.634;7.112;2022-11-20T00:00:29;3.00;99.90
314;DHT22;143;51.634;7.112;2022-11-20T00:02:55;3.00;99.90
314;DHT22;143;51.634;7.112;2022-11-20T00:05:20;2.90;99.90
314;DHT22;143;51.634;7.112;2022-11-20T00:07:46;3.00;99.90
314;DHT22;143;51.634;7.112;2022-11-20T00:10:12;3.00;99.90
314;DHT22;143;51.634;7.112;2022-11-20T00:12:38;3.10;99.90
314;DHT22;143;51.634;7.112;2022-11-20T00:15:04;3.40;99.90
314;DHT22;143;51.634;7.112;2022-11-20T00:17:30;3.40;99.90
314;DHT22;143;51.634;7.112;2022-11-20T00:19:55;3.20;99.90
314;DHT22;143;51.634;7.112;2022-11-20T00:22:21;3.40;99.90
314;DHT22;143;51.634;7.112;2022-11-20T00:24:47;3.10;99.90
314;DHT22;143;51.634;7.112;2022-11-20T00:27:12;3.00;99.90
314;DHT22;143;51.634;7.112;2022-11-20T00:29:38;3.00;99.90
314;DHT22;143;51.634;7.112;2022-11-20T00:32:04;3.10;99.90
314;DHT22;143;51.634;7.112;2022-11-20T00:34:30;3.00;99.90
314;DHT22;143;51.634;7.112;2022-11-20T00:36:55;3.10;99.90
314;DHT22;143;51.634;7.112;2022-11-20T00:39:21;3.00;99.90
314;DHT22;143;51.634;7.112;2022-11-20T00:41:47;2.90;99.90
314;DHT22;143;51.634;7.112;2022-11-20T00:44:12;3.00;99.90
314;DHT22;143;51.634;7.112;2022-11-20T00:46:38;3.00;99.90
314;DHT22;143;51.634;7.112;2022-11-20T00:49:03;3.00;99.90
314;DHT22;143;51.634;7.112;2022-11-20T00:51:29;2.90;99.90
314;DHT22;143;51.634;7.112;2022-11-20T00:53:58;3.00;99.90
314;DHT22;143;51.634;7.112;2022-11-20T00:56:25;3.10;99.90
314;DHT22;143;51.634;7.112;2022-11-20T00:58:51;3.00;99.90
314;DHT22;143;51.634;7.112;2022-11-20T01:01:19;3.00;99.90
314;DHT22;143;51.634;7.112;2022-11-20T01:03:49;3.20;99.90
314;DHT22;143;51.634;7.112;2022-11-20T01:06:18;2.90;99.90
314;DHT22;143;51.634;7.112;2022-11-20T01:08:45;3.00;99.90
314;DHT22;143;51.634;7.112;2022-11-20T01:11:17;2.70;99.90
314;DHT22;143;51.634;7.112;2022-11-20T01:13:45;2.50;99.90
314;DHT22;143;51.634;7.112;2022-11-20T01:16:22;2.10;99.90
314;DHT22;143;51.634;7.112;2022-11-20T01:18:51;2.00;99.90
314;DHT22;143;51.634;7.112;2022-11-20T01:21:19;1.80;99.90
314;DHT22;143;51.634;7.112;2022-11-20T01:23:46;1.80;99.90
314;DHT22;143;51.634;7.112;2022-11-20T01:26:16;1.30;99.90
314;DHT22;143;51.634;7.112;2022-11-20T01:28:42;1.60;99.90
314;DHT22;143;51.634;7.112;2022-11-20T01:31:35;1.30;99.90
314;DHT22;143;51.634;7.112;2022-11-20T01:34:04;1.40;99.90
314;DHT22;143;51.634;7.112;2022-11-20T01:36:32;1.10;99.90
314;DHT22;143;51.634;7.112;2022-11-20T01:39:04;1.20;99.90
314;DHT22;143;51.634;7.112;2022-11-20T01:41:31;1.00;99.90
314;DHT22;143;51.634;7.112;2022-11-20T01:44:19;0.90;99.90
314;DHT22;143;51.634;7.112;2022-11-20T01:47:05;0.90;99.90
314;DHT22;143;51.634;7.112;2022-11-20T01:49:38;0.70;99.90
314;DHT22;143;51.634;7.112;2022-11-20T01:52:13;0.60;99.90
314;DHT22;143;51.634;7.112;2022-11-20T01:54:49;0.70;99.90
314;DHT22;143;51.634;7.112;2022-11-20T01:57:18;0.50;99.90
314;DHT22;143;51.634;7.112;2022-11-20T01:59:52;0.50;99.90
314;DHT22;143;51.634;7.112;2022-11-20T02:02:20;0.40;99.90
314;DHT22;143;51.634;7.112;2022-11-20T02:04:47;0.40;99.90
314;DHT22;143;51.634;7.112;2022-11-20T02:07:14;0.30;99.90
314;DHT22;143;51.634;7.112;2022-11-20T02:09:41;0.50;99.90
314;DHT22;143;51.634;7.112;2022-11-20T02:12:06;0.30;99.90
314;DHT22;143;51.634;7.112;2022-11-20T02:14:52;0.30;99.90
314;DHT22;143;51.634;7.112;2022-11-20T02:17:18;0.30;99.90
314;DHT22;143;51.634;7.112;2022-11-20T02:19:43;0.40;99.90
314;DHT22;143;51.634;7.112;2022-11-20T02:24:51;0.50;99.90
314;DHT22;143;51.634;7.112;2022-11-20T02:27:17;0.60;99.90
314;DHT22;143;51.634;7.112;2022-11-20T02:29:54;0.70;99.90
314;DHT22;143;51.634;7.112;2022-11-20T02:32:25;0.50;99.90
314;DHT22;143;51.634;7.112;2022-11-20T02:34:51;0.50;99.90
314;DHT22;143;51.634;7.112;2022-11-20T02:37:18;0.50;99.90
314;DHT22;143;51.634;7.112;2022-11-20T02:39:46;0.50;99.90
314;DHT22;143;51.634;7.112;2022-11-20T02:42:13;0.30;99.90
314;DHT22;143;51.634;7.112;2022-11-20T02:44:39;0.20;99.90
314;DHT22;143;51.634;7.112;2022-11-20T02:47:05;0.70;99.90
314;DHT22;143;51.634;7.112;2022-11-20T02:49:30;0.30;99.90
314;DHT22;143;51.634;7.112;2022-11-20T02:51:56;0.20;99.90
314;DHT22;143;51.634;7.112;2022-11-20T02:54:22;0.50;99.90
314;DHT22;143;51.634;7.112;2022-11-20T02:56:48;0.30;99.90
314;DHT22;143;51.634;7.112;2022-11-20T02:59:13;0.40;99.90
314;DHT22;143;51.634;7.112;2022-11-20T03:01:39;0.50;99.90
314;DHT22;143;51.634;7.112;2022-11-20T03:04:05;0.40;99.90
314;DHT22;143;51.634;7.112;2022-11-20T03:06:30;0.50;99.90
314;DHT22;143;51.634;7.112;2022-11-20T03:08:56;0.30;99.90
314;DHT22;143;51.634;7.112;2022-11-20T03:11:22;0.30;99.90
314;DHT22;143;51.634;7.112;2022-11-20T03:13:48;0.30;99.90
314;DHT22;143;51.634;7.112;2022-11-20T03:16:19;0.30;99.90
314;DHT22;143;51.634;7.112;2022-11-20T03:18:45;0.30;99.90
314;DHT22;143;51.634;7.112;2022-11-20T03:21:12;0.30;99.90
314;DHT22;143;51.634;7.112;2022-11-20T03:23:38;0.30;99.90
314;DHT22;143;51.634;7.112;2022-11-20T03:26:13;0.20;99.90
314;DHT22;143;51.634;7.112;2022-11-20T03:28:40;0.10;99.90
314;DHT22;143;51.634;7.112;2022-11-20T03:31:09;0.30;99.90
314;DHT22;143;51.634;7.112;2022-11-20T03:33:34;0.00;99.90
314;DHT22;143;51.634;7.112;2022-11-20T03:36:05;0.20;99.90
314;DHT22;143;51.634;7.112;2022-11-20T03:38:32;0.10;99.90
314;DHT22;143;51.634;7.112;2022-11-20T03:41:21;0.00;99.90
314;DHT22;143;51.634;7.112;2022-11-20T03:43:52;-0.10;99.90
314;DHT22;143;51.634;7.112;2022-11-20T03:46:18;-0.10;99.90
314;DHT22;143;51.634;7.112;2022-11-20T03:48:43;-0.10;99.90
314;DHT22;143;51.634;7.112;2022-11-20T03:51:12;0.00;99.90
314;DHT22;143;51.634;7.112;2022-11-20T03:53:42;0.10;99.90
314;DHT22;143;51.634;7.112;2022-11-20T03:56:09;0.20;99.90
314;DHT22;143;51.634;7.112;2022-11-20T03:58:36;0.20;99.90
314;DHT22;143;51.634;7.112;2022-11-20T04:03:34;0.20;99.90
314;DHT22;143;51.634;7.112;2022-11-20T04:06:05;0.20;99.90
314;DHT22;143;51.634;7.112;2022-11-20T04:08:31;0.30;99.90
314;DHT22;143;51.634;7.112;2022-11-20T04:10:56;0.30;99.90
314;DHT22;143;51.634;7.112;2022-11-20T04:13:32;0.20;99.90
314;DHT22;143;51.634;7.112;2022-11-20T04:15:58;0.00;99.90
314;DHT22;143;51.634;7.112;2022-11-20T04:18:24;0.10;99.90
314;DHT22;143;51.634;7.112;2022-11-20T04:20:49;-0.10;99.90
314;DHT22;143;51.634;7.112;2022-11-20T04:23:15;-0.20;99.90
314;DHT22;143;51.634;7.112;2022-11-20T04:25:41;-0.30;99.90
314;DHT22;143;51.634;7.112;2022-11-20T04:28:06;-0.30;99.90
314;DHT22;143;51.634;7.112;2022-11-20T04:30:32;-0.20;99.90
314;DHT22;143;51.634;7.112;2022-11-20T04:32:58;-0.10;99.90
314;DHT22;143;51.634;7.112;2022-11-20T04:35:23;-0.10;99.90
314;DHT22;143;51.634;7.112;2022-11-20T04:37:51;-0.10;99.90
314;DHT22;143;51.634;7.112;2022-11-20T04:40:17;-0.10;99.90
314;DHT22;143;51.634;7.112;2022-11-20T04:42:43;-0.20;99.90
314;DHT22;143;51.634;7.112;2022-11-20T04:45:09;-0.10;99.90
314;DHT22;143;51.634;7.112;2022-11-20T04:47:34;-0.20;99.90
314;DHT22;143;51.634;7.112;2022-11-20T04:50:00;-0.10;99.90
314;DHT22;143;51.634;7.112;2022-11-20T04:52:26;-0.10;99.90
314;DHT22;143;51.634;7.112;2022-11-20T04:54:52;-0.20;99.90
314;DHT22;143;51.634;7.112;2022-11-20T04:57:19;-0.10;99.90
314;DHT22;143;51.634;7.112;2022-11-20T04:59:45;-0.10;99.90
314;DHT22;143;51.634;7.112;2022-11-20T05:02:11;0.10;99.90
314;DHT22;143;51.634;7.112;2022-11-20T05:04:37;0.00;99.90
314;DHT22;143;51.634;7.112;2022-11-20T05:07:03;-0.10;99.90
314;DHT22;143;51.634;7.112;2022-11-20T05:09:29;-0.10;99.90
314;DHT22;143;51.634;7.112;2022-11-20T05:11:55;-0.10;99.90
314;DHT22;143;51.634;7.112;2022-11-20T05:14:21;-0.30;99.90
314;DHT22;143;51.634;7.112;2022-11-20T05:16:46;-0.30;99.90
314;DHT22;143;51.634;7.112;2022-11-20T05:19:12;-0.40;99.90
314;DHT22;143;51.634;7.112;2022-11-20T05:21:38;-0.30;99.90
314;DHT22;143;51.634;7.112;2022-11-20T05:24:03;-0.30;99.90
314;DHT22;143;51.634;7.112;2022-11-20T05:26:30;-0.30;99.90
314;DHT22;143;51.634;7.112;2022-11-20T05:28:55;-0.30;99.90
314;DHT22;143;51.634;7.112;2022-11-20T05:31:23;-0.30;99.90
314;DHT22;143;51.634;7.112;2022-11-20T05:33:49;-0.30;99.90
314;DHT22;143;51.634;7.112;2022-11-20T05:36:15;-0.30;99.90
314;DHT22;143;51.634;7.112;2022-11-20T05:38:41;-0.30;99.90
314;DHT22;143;51.634;7.112;2022-11-20T05:41:18;-0.40;99.90
314;DHT22;143;51.634;7.112;2022-11-20T05:43:45;-0.30;99.90
314;DHT22;143;51.634;7.112;2022-11-20T05:46:13;-0.40;99.90
314;DHT22;143;51.634;7.112;2022-11-20T05:48:40;-0.30;99.90
314;DHT22;143;51.634;7.112;2022-11-20T05:51:08;-0.30;99.90
314;DHT22;143;51.634;7.112;2022-11-20T05:53:35;-0.30;99.90
314;DHT22;143;51.634;7.112;2022-11-20T05:56:05;-0.40;99.90
314;DHT22;143;51.634;7.112;2022-11-20T05:58:32;-0.30;99.90
314;DHT22;143;51.634;7.112;2022-11-20T06:03:34;-0.40;99.90
314;DHT22;143;51.634;7.112;2022-11-20T06:06:00;-0.30;99.90
314;DHT22;143;51.634;7.112;2022-11-20T06:08:26;-0.40;99.90
314;DHT22;143;51.634;7.112;2022-11-20T06:10:52;-0.30;99.90
314;DHT22;143;51.634;7.112;2022-11-20T06:13:17;-0.30;99.90
314;DHT22;143;51.634;7.112;2022-11-20T06:15:49;-0.40;99.90
314;DHT22;143;51.634;7.112;2022-11-20T06:18:15;-0.30;1.00
314;DHT22;143;51.634;7.112;2022-11-20T06:20:40;-0.30;1.00
314;DHT22;143;51.634;7.112;2022-11-20T06:23:06;-0.10;1.00
314;DHT22;143;51.634;7.112;2022-11-20T06:25:32;0.00;1.00
314;DHT22;143;51.634;7.112;2022-11-20T06:27:58;-0.30;1.00
314;DHT22;143;51.634;7.112;2022-11-20T06:30:24;-0.30;1.00
314;DHT22;143;51.634;7.112;2022-11-20T06:32:50;-0.30;1.00
314;DHT22;143;51.634;7.112;2022-11-20T06:35:15;-0.20;1.00
314;DHT22;143;51.634;7.112;2022-11-20T06:37:42;-0.20;1.00
314;DHT22;143;51.634;7.112;2022-11-20T06:40:08;-0.30;1.00
314;DHT22;143;51.634;7.112;2022-11-20T06:42:34;-0.10;1.00
314;DHT22;143;51.634;7.112;2022-11-20T06:45:00;-0.10;1.00
314;DHT22;143;51.634;7.112;2022-11-20T06:47:25;-0.10;1.00
314;DHT22;143;51.634;7.112;2022-11-20T06:49:51;-0.30;1.00
314;DHT22;143;51.634;7.112;2022-11-20T06:52:17;-0.10;1.00
314;DHT22;143;51.634;7.112;2022-11-20T06:54:42;0.00;1.00
314;DHT22;143;51.634;7.112;2022-11-20T06:57:08;-0.20;1.00
314;DHT22;143;51.634;7.112;2022-11-20T06:59:34;-0.20;1.00
314;DHT22;143;51.634;7.112;2022-11-20T07:01:59;-0.20;1.00
314;DHT22;143;51.634;7.112;2022-11-20T07:04:25;-0.20;1.00
314;DHT22;143;51.634;7.112;2022-11-20T07:06:51;-0.30;1.00
314;DHT22;143;51.634;7.112;2022-11-20T07:09:16;-0.30;1.00
314;DHT22;143;51.634;7.112;2022-11-20T07:11:42;-0.30;1.00
314;DHT22;143;51.634;7.112;2022-11-20T07:14:08;-0.30;1.00
314;DHT22;143;51.634;7.112;2022-11-20T07:16:33;-0.30;1.00
314;DHT22;143;51.634;7.112;2022-11-20T07:18:59;-0.30;1.00
314;DHT22;143;51.634;7.112;2022-11-20T07:21:25;-0.30;1.00
314;DHT22;143;51.634;7.112;2022-11-20T07:23:50;-0.30;1.00
314;DHT22;143;51.634;7.112;2022-11-20T07:26:16;-0.30;1.00
314;DHT22;143;51.634;7.112;2022-11-20T07:28:44;-0.10;1.00
314;DHT22;143;51.634;7.112;2022-11-20T07:31:10;0.00;1.00
314;DHT22;143;51.634;7.112;2022-11-20T07:33:37;-0.20;1.00
314;DHT22;143;51.634;7.112;2022-11-20T07:36:03;-0.20;1.00
314;DHT22;143;51.634;7.112;2022-11-20T07:38:29;-0.20;1.00
314;DHT22;143;51.634;7.112;2022-11-20T07:40:56;-0.10;1.00
314;DHT22;143;51.634;7.112;2022-11-20T07:43:23;0.10;1.00
314;DHT22;143;51.634;7.112;2022-11-20T07:45:49;0.00;1.00
314;DHT22;143;51.634;7.112;2022-11-20T07:48:14;0.30;1.00
314;DHT22;143;51.634;7.112;2022-11-20T07:50:40;0.30;1.00
314;DHT22;143;51.634;7.112;2022-11-20T07:53:06;0.30;1.00
314;DHT22;143;51.634;7.112;2022-11-20T07:55:32;0.50;1.00
314;DHT22;143;51.634;7.112;2022-11-20T07:57:58;0.50;1.00
314;DHT22;143;51.634;7.112;2022-11-20T08:00:24;0.50;1.00
314;DHT22;143;51.634;7.112;2022-11-20T08:02:50;0.80;1.00
314;DHT22;143;51.634;7.112;2022-11-20T08:05:16;0.70;99.90
314;DHT22;143;51.634;7.112;2022-11-20T08:07:43;0.70;99.90
314;DHT22;143;51.634;7.112;2022-11-20T08:10:11;1.00;99.90
314;DHT22;143;51.634;7.112;2022-11-20T08:12:46;1.20;99.90
314;DHT22;143;51.634;7.112;2022-11-20T08:15:31;1.00;99.90
314;DHT22;143;51.634;7.112;2022-11-20T08:18:03;1.30;99.90
314;DHT22;143;51.634;7.112;2022-11-20T08:20:30;1.10;99.90
314;DHT22;143;51.634;7.112;2022-11-20T08:23:03;1.30;99.90
314;DHT22;143;51.634;7.112;2022-11-20T08:25:30;1.60;99.90
314;DHT22;143;51.634;7.112;2022-11-20T08:28:03;1.80;99.90
314;DHT22;143;51.634;7.112;2022-11-20T08:30:29;1.80;99.90
314;DHT22;143;51.634;7.112;2022-11-20T08:33:00;1.90;99.90
314;DHT22;143;51.634;7.112;2022-11-20T08:35:26;2.00;99.90
314;DHT22;143;51.634;7.112;2022-11-20T08:37:51;2.20;99.90
314;DHT22;143;51.634;7.112;2022-11-20T08:40:17;2.30;99.90
314;DHT22;143;51.634;7.112;2022-11-20T08:42:50;2.50;99.90
314;DHT22;143;51.634;7.112;2022-11-20T08:45:17;2.50;99.90
314;DHT22;143;51.634;7.112;2022-11-20T08:47:43;2.70;99.90
314;DHT22;143;51.634;7.112;2022-11-20T08:50:11;3.00;99.90
314;DHT22;143;51.634;7.112;2022-11-20T08:52:37;3.00;99.90
314;DHT22;143;51.634;7.112;2022-11-20T08:55:04;3.20;99.90
314;DHT22;143;51.634;7.112;2022-11-20T08:57:34;3.70;99.90
314;DHT22;143;51.634;7.112;2022-11-20T09:00:01;3.90;99.90
314;DHT22;143;51.634;7.112;2022-11-20T09:02:27;4.00;99.90
314;DHT22;143;51.634;7.112;2022-11-20T09:04:53;4.30;99.90
314;DHT22;143;51.634;7.112;2022-11-20T09:07:21;4.50;99.90
314;DHT22;143;51.634;7.112;2022-11-20T09:09:47;4.40;99.90
314;DHT22;143;51.634;7.112;2022-11-20T09:12:13;4.70;99.90
314;DHT22;143;51.634;7.112;2022-11-20T09:14:39;5.20;99.90
314;DHT22;143;51.634;7.112;2022-11-20T09:17:04;5.40;99.90
314;DHT22;143;51.634;7.112;2022-11-20T09:19:30;5.40;99.90
314;DHT22;143;51.634;7.112;2022-11-20T09:21:56;5.50;99.90
314;DHT22;143;51.634;7.112;2022-11-20T09:24:21;5.80;99.90
314;DHT22;143;51.634;7.112;2022-11-20T09:26:47;5.90;99.90
314;DHT22;143;51.634;7.112;2022-11-20T09:29:13;6.30;99.90
314;DHT22;143;51.634;7.112;2022-11-20T09:31:38;6.20;99.90
314;DHT22;143;51.634;7.112;2022-11-20T09:34:04;6.70;99.90
314;DHT22;143;51.634;7.112;2022-11-20T09:36:30;7.20;99.90
314;DHT22;143;51.634;7.112;2022-11-20T09:38:56;7.20;99.90
314;DHT22;143;51.634;7.112;2022-11-20T09:52:33;8.80;68.30
314;DHT22;143;51.634;7.112;2022-11-20T09:55:04;9.40;18.30
314;DHT22;143;51.634;7.112;2022-11-20T09:57:37;9.60;1.00
314;DHT22;143;51.634;7.112;2022-11-20T10:00:06;9.80;1.00
314;DHT22;143;51.634;7.112;2022-11-20T10:05:31;9.90;1.00
314;DHT22;143;51.634;7.112;2022-11-20T10:10:47;9.60;1.00
314;DHT22;143;51.634;7.112;2022-11-20T10:21:47;9.00;1.00
314;DHT22;143;51.634;7.112;2022-11-20T10:27:32;9.30;1.00
314;DHT22;143;51.634;7.112;2022-11-20T10:30:06;9.60;1.00
314;DHT22;143;51.634;7.112;2022-11-20T10:32:48;10.10;1.00
314;DHT22;143;51.634;7.112;2022-11-20T10:35:23;10.00;1.00
314;DHT22;143;51.634;7.112;2022-11-20T10:37:58;9.90;1.00
314;DHT22;143;51.634;7.112;2022-11-20T10:40:37;9.80;1.00
314;DHT22;143;51.634;7.112;2022-11-20T10:43:28;9.60;1.00
314;DHT22;143;51.634;7.112;2022-11-20T10:48:27;9.10;1.00
314;DHT22;143;51.634;7.112;2022-11-20T10:56:02;8.10;1.00
314;DHT22;143;51.634;7.112;2022-11-20T11:01:18;8.10;1.00
314;DHT22;143;51.634;7.112;2022-11-20T11:03:47;7.90;1.00
314;DHT22;143;51.634;7.112;2022-11-20T11:06:34;7.80;1.00
314;DHT22;143;51.634;7.112;2022-11-20T11:09:06;7.60;1.00
314;DHT22;143;51.634;7.112;2022-11-20T11:11:34;7.70;1.00
314;DHT22;143;51.634;7.112;2022-11-20T11:14:13;7.20;1.00
314;DHT22;143;51.634;7.112;2022-11-20T11:16:56;7.40;1.00
314;DHT22;143;51.634;7.112;2022-11-20T11:19:22;7.20;1.00
314;DHT22;143;51.634;7.112;2022-11-20T11:21:57;7.20;1.00
314;DHT22;143;51.634;7.112;2022-11-20T11:24:27;7.10;1.00
314;DHT22;143;51.634;7.112;2022-11-20T11:27:00;7.20;1.00
314;DHT22;143;51.634;7.112;2022-11-20T11:29:32;6.90;1.00
314;DHT22;143;51.634;7.112;2022-11-20T11:32:12;7.00;1.00
314;DHT22;143;51.634;7.112;2022-11-20T11:34:38;6.90;1.00
314;DHT22;143;51.634;7.112;2022-11-20T11:37:05;6.80;1.00
314;DHT22;143;51.634;7.112;2022-11-20T11:39:32;6.80;1.00
314;DHT22;143;51.634;7.112;2022-11-20T11:42:00;6.80;3.10
314;DHT22;143;51.634;7.112;2022-11-20T11:44:33;6.40;21.30
314;DHT22;143;51.634;7.112;2022-11-20T11:49:47;6.40;66.10
314;DHT22;143;51.634;7.112;2022-11-20T11:52:21;6.40;80.60
314;DHT22;143;51.634;7.112;2022-11-20T11:54:53;6.70;98.40
314;DHT22;143;51.634;7.112;2022-11-20T12:02:37;7.50;99.90
314;DHT22;143;51.634;7.112;2022-11-20T12:05:21;8.80;99.90
314;DHT22;143;51.634;7.112;2022-11-20T12:10:54;9.80;1.00
314;DHT22;143;51.634;7.112;2022-11-20T12:16:12;9.60;1.00
314;DHT22;143;51.634;7.112;2022-11-20T12:18:39;9.30;1.00
314;DHT22;143;51.634;7.112;2022-11-20T12:39:49;7.90;1.00
314;DHT22;143;51.634;7.112;2022-11-20T12:42:29;7.70;1.00
314;DHT22;143;51.634;7.112;2022-11-20T13:08:14;6.80;99.20
314;DHT22;143;51.634;7.112;2022-11-20T13:18:38;6.80;99.90
314;DHT22;143;51.634;7.112;2022-11-20T13:21:21;6.40;99.90
314;DHT22;143;51.634;7.112;2022-11-20T13:23:47;6.30;99.90
314;DHT22;143;51.634;7.112;2022-11-20T13:26:22;6.60;99.90
314;DHT22;143;51.634;7.112;2022-11-20T13:29:04;6.30;99.90
314;DHT22;143;51.634;7.112;2022-11-20T13:31:34;6.30;99.90
314;DHT22;143;51.634;7.112;2022-11-20T13:34:03;6.20;99.90
314;DHT22;143;51.634;7.112;2022-11-20T13:36:29;6.30;99.90
314;DHT22;143;51.634;7.112;2022-11-20T13:38:57;6.00;99.90
314;DHT22;143;51.634;7.112;2022-11-20T13:46:48;6.00;99.90
314;DHT22;143;51.634;7.112;2022-11-20T13:49:32;6.00;99.90
314;DHT22;143;51.634;7.112;2022-11-20T14:00:23;5.80;99.90
314;DHT22;143;51.634;7.112;2022-11-20T14:03:13;5.70;99.90
314;DHT22;143;51.634;7.112;2022-11-20T14:06:12;5.80;99.90
314;DHT22;143;51.634;7.112;2022-11-20T14:08:46;5.60;99.90
314;DHT22;143;51.634;7.112;2022-11-20T14:11:18;5.80;99.90
314;DHT22;143;51.634;7.112;2022-11-20T14:16:20;5.80;99.90
314;DHT22;143;51.634;7.112;2022-11-20T14:18:46;5.80;99.90
314;DHT22;143;51.634;7.112;2022-11-20T14:21:27;5.60;99.90
314;DHT22;143;51.634;7.112;2022-11-20T14:24:06;5.50;99.90
314;DHT22;143;51.634;7.112;2022-11-20T14:26:36;5.50;99.90
314;DHT22;143;51.634;7.112;2022-11-20T14:29:03;5.50;99.90
314;DHT22;143;51.634;7.112;2022-11-20T14:31:28;5.50;99.90
314;DHT22;143;51.634;7.112;2022-11-20T14:33:55;5.40;99.90
314;DHT22;143;51.634;7.112;2022-11-20T14:36:23;5.20;99.90
314;DHT22;143;51.634;7.112;2022-11-20T14:38:51;5.40;99.90
314;DHT22;143;51.634;7.112;2022-11-20T14:41:22;5.30;99.90
314;DHT22;143;51.634;7.112;2022-11-20T14:43:56;5.20;99.90
314;DHT22;143;51.634;7.112;2022-11-20T14:46:22;5.20;99.90
314;DHT22;143;51.634;7.112;2022-11-20T14:48:51;5.20;99.90
314;DHT22;143;51.634;7.112;2022-11-20T14:51:36;5.20;99.90
314;DHT22;143;51.634;7.112;2022-11-20T14:54:16;5.20;99.90
314;DHT22;143;51.634;7.112;2022-11-20T14:56:54;5.50;99.90
314;DHT22;143;51.634;7.112;2022-11-20T14:59:25;5.20;99.90
314;DHT22;143;51.634;7.112;2022-11-20T15:02:10;5.20;99.90
314;DHT22;143;51.634;7.112;2022-11-20T15:04:48;5.50;99.90
314;DHT22;143;51.634;7.112;2022-11-20T15:12:26;5.20;99.90
314;DHT22;143;51.634;7.112;2022-11-20T15:14:52;5.20;99.90
314;DHT22;143;51.634;7.112;2022-11-20T15:17:18;5.30;99.90
314;DHT22;143;51.634;7.112;2022-11-20T15:19:43;5.50;99.90
314;DHT22;143;51.634;7.112;2022-11-20T15:22:11;5.30;99.90
314;DHT22;143;51.634;7.112;2022-11-20T15:24:38;5.50;99.90
314;DHT22;143;51.634;7.112;2022-11-20T15:27:04;5.50;99.90
314;DHT22;143;51.634;7.112;2022-11-20T15:29:29;5.20;99.90
314;DHT22;143;51.634;7.112;2022-11-20T15:31:55;5.20;99.90
314;DHT22;143;51.634;7.112;2022-11-20T15:34:21;5.20;1.00
314;DHT22;143;51.634;7.112;2022-11-20T15:36:47;5.20;1.00
314;DHT22;143;51.634;7.112;2022-11-20T15:39:13;5.20;1.00
314;DHT22;143;51.634;7.112;2022-11-20T15:41:38;5.20;1.00
314;DHT22;143;51.634;7.112;2022-11-20T15:44:05;5.10;1.00
314;DHT22;143;51.634;7.112;2022-11-20T15:46:32;5.00;1.00
314;DHT22;143;51.634;7.112;2022-11-20T15:49:03;5.10;1.00
314;DHT22;143;51.634;7.112;2022-11-20T15:51:31;5.00;1.00
314;DHT22;143;51.634;7.112;2022-11-20T15:53:59;5.00;1.00
314;DHT22;143;51.634;7.112;2022-11-20T15:56:25;5.20;1.00
314;DHT22;143;51.634;7.112;2022-11-20T15:58:51;5.20;1.00
314;DHT22;143;51.634;7.112;2022-11-20T16:01:18;4.90;1.00
314;DHT22;143;51.634;7.112;2022-11-20T16:03:45;5.00;1.00
314;DHT22;143;51.634;7.112;2022-11-20T16:06:11;5.00;1.00
314;DHT22;143;51.634;7.112;2022-11-20T16:08:36;4.70;1.00
314;DHT22;143;51.634;7.112;2022-11-20T16:11:02;4.70;1.00
314;DHT22;143;51.634;7.112;2022-11-20T16:13:30;4.70;1.00
314;DHT22;143;51.634;7.112;2022-11-20T16:16:21;4.70;1.00
314;DHT22;143;51.634;7.112;2022-11-20T16:18:48;4.70;1.00
314;DHT22;143;51.634;7.112;2022-11-20T16:21:14;4.70;1.00
314;DHT22;143;51.634;7.112;2022-11-20T16:23:41;4.60;1.00
314;DHT22;143;51.634;7.112;2022-11-20T16:26:15;4.70;1.00
314;DHT22;143;51.634;7.112;2022-11-20T16:28:42;4.70;1.00
314;DHT22;143;51.634;7.112;2022-11-20T16:31:16;4.70;1.00
314;DHT22;143;51.634;7.112;2022-11-20T16:33:43;4.60;1.00
314;DHT22;143;51.634;7.112;2022-11-20T16:36:14;4.60;1.00
314;DHT22;143;51.634;7.112;2022-11-20T16:38:41;4.70;1.00
314;DHT22;143;51.634;7.112;2022-11-20T16:41:08;4.70;1.00
314;DHT22;143;51.634;7.112;2022-11-20T16:43:44;4.60;1.00
314;DHT22;143;51.634;7.112;2022-11-20T16:46:11;4.90;1.00
314;DHT22;143;51.634;7.112;2022-11-20T16:48:36;4.70;1.00
314;DHT22;143;51.634;7.112;2022-11-20T16:51:02;4.70;1.00
314;DHT22;143;51.634;7.112;2022-11-20T16:53:27;4.70;1.00
314;DHT22;143;51.634;7.112;2022-11-20T16:55:53;4.70;1.00
314;DHT22;143;51.634;7.112;2022-11-20T16:58:19;4.70;1.00
314;DHT22;143;51.634;7.112;2022-11-20T17:00:45;4.70;1.00
314;DHT22;143;51.634;7.112;2022-11-20T17:03:10;4.50;1.00
314;DHT22;143;51.634;7.112;2022-11-20T17:05:38;4.40;1.00
314;DHT22;143;51.634;7.112;2022-11-20T17:08:03;4.50;1.00
314;DHT22;143;51.634;7.112;2022-11-20T17:10:29;4.50;1.00
314;DHT22;143;51.634;7.112;2022-11-20T17:12:55;4.60;1.00
314;DHT22;143;51.634;7.112;2022-11-20T17:15:21;4.50;1.00
314;DHT22;143;51.634;7.112;2022-11-20T17:17:46;4.40;1.00
314;DHT22;143;51.634;7.112;2022-11-20T17:20:12;4.40;1.00
314;DHT22;143;51.634;7.112;2022-11-20T17:22:38;4.60;1.00
314;DHT22;143;51.634;7.112;2022-11-20T17:25:04;4.60;1.00
314;DHT22;143;51.634;7.112;2022-11-20T17:27:29;4.60;1.00
314;DHT22;143;51.634;7.112;2022-11-20T17:29:55;4.60;1.00
314;DHT22;143;51.634;7.112;2022-11-20T17:32:23;4.90;1.00
314;DHT22;143;51.634;7.112;2022-11-20T17:34:49;4.70;1.00
314;DHT22;143;51.634;7.112;2022-11-20T17:37:14;4.60;1.00
314;DHT22;143;51.634;7.112;2022-11-20T17:39:40;4.70;1.00
314;DHT22;143;51.634;7.112;2022-11-20T17:42:05;4.90;1.00
314;DHT22;143;51.634;7.112;2022-11-20T17:44:50;4.90;1.00
314;DHT22;143;51.634;7.112;2022-11-20T17:47:15;4.80;1.00
314;DHT22;143;51.634;7.112;2022-11-20T17:49:41;4.90;1.00
314;DHT22;143;51.634;7.112;2022-11-20T17:52:07;4.90;1.00
314;DHT22;143;51.634;7.112;2022-11-20T17:54:32;4.90;1.00
314;DHT22;143;51.634;7.112;2022-11-20T17:56:58;4.90;1.00
314;DHT22;143;51.634;7.112;2022-11-20T17:59:42;4.90;1.00
314;DHT22;143;51.634;7.112;2022-11-20T18:02:09;4.90;1.00
314;DHT22;143;51.634;7.112;2022-11-20T18:04:35;4.90;1.00
314;DHT22;143;51.634;7.112;2022-11-20T18:07:01;4.90;1.00
314;DHT22;143;51.634;7.112;2022-11-20T18:09:27;4.90;1.00
314;DHT22;143;51.634;7.112;2022-11-20T18:11:52;5.00;1.00
314;DHT22;143;51.634;7.112;2022-11-20T18:14:18;5.00;1.00
314;DHT22;143;51.634;7.112;2022-11-20T18:17:02;5.00;1.00
314;DHT22;143;51.634;7.112;2022-11-20T18:19:32;4.90;1.00
314;DHT22;143;51.634;7.112;2022-11-20T18:21:59;5.00;1.00
314;DHT22;143;51.634;7.112;2022-11-20T18:24:26;4.90;1.00
314;DHT22;143;51.634;7.112;2022-11-20T18:26:52;4.90;1.00
314;DHT22;143;51.634;7.112;2022-11-20T18:29:17;4.90;1.00
314;DHT22;143;51.634;7.112;2022-11-20T18:31:43;4.90;1.00
314;DHT22;143;51.634;7.112;2022-11-20T18:34:09;4.90;1.00
314;DHT22;143;51.634;7.112;2022-11-20T18:36:37;4.90;1.00
314;DHT22;143;51.634;7.112;2022-11-20T18:39:03;4.90;1.00
314;DHT22;143;51.634;7.112;2022-11-20T18:41:30;4.90;1.00
314;DHT22;143;51.634;7.112;2022-11-20T18:44:17;4.90;1.00
314;DHT22;143;51.634;7.112;2022-11-20T18:47:01;4.80;1.00
314;DHT22;143;51.634;7.112;2022-11-20T18:49:27;5.00;1.00
314;DHT22;143;51.634;7.112;2022-11-20T18:51:53;5.00;1.00
314;DHT22;143;51.634;7.112;2022-11-20T18:54:19;4.90;1.00
314;DHT22;143;51.634;7.112;2022-11-20T18:56:45;5.00;1.00
314;DHT22;143;51.634;7.112;2022-11-20T18:59:11;4.80;1.00
314;DHT22;143;51.634;7.112;2022-11-20T19:01:37;4.80;1.00
314;DHT22;143;51.634;7.112;2022-11-20T19:04:07;5.00;1.00
314;DHT22;143;51.634;7.112;2022-11-20T19:06:34;5.00;1.00
314;DHT22;143;51.634;7.112;2022-11-20T19:09:03;5.00;1.00
314;DHT22;143;51.634;7.112;2022-11-20T19:11:28;4.90;1.00
314;DHT22;143;51.634;7.112;2022-11-20T19:13:54;4.90;1.00
314;DHT22;143;51.634;7.112;2022-11-20T19:16:20;5.00;1.00